Bodoc, Louisiana
Current Conditions -  °F | °C
As of 3:55 PM on Sunday 25 Jan 2015 (Local Time) from KOPL Reporting Station
Clear Clear  
Wind Chill: 66°   Ceiling: Unl
Heat Index: 66°   Visibility: 10mi
Dew Point: 46°   Wind: 15mph
Humidity: 47%   Direction: 240°WSW
Pressure: 29.89"   Gusts: 22mph
Location:  30.9227°N, 91.987°W
Report Text: KOPL 252155Z AUTO 24013G19KT 10SM CLR 19/08 A2989 RMK AO2 T01900075
Loading
Personal Weather Stations






























Interactive Weather Map New forecast layout! Learn more

10-Day Weather Forecast

Advertisements
Track Severe Weather on mobile